Time;durP1;ratioP1;P1;durP2;ratioP2;P2;SDS_P1;SDS_P2;PMS_P1;PMS_P2;Temp;Humidity;BMP_temperature;BMP_pressure;BME280_temperature;BME280_humidity;BME280_pressure;Samples;Min_cycle;Max_cycle;Signal;HPM_P1;HPM_P2
2022/07/22 00:01:34;;;;;;;8.93;2.40;;;17.80;99.90;;;;;;4999557;28;20466;-73
2022/07/22 00:04:01;;;;;;;12.95;2.60;;;17.80;99.90;;;;;;5013655;28;20030;-73
2022/07/22 00:06:27;;;;;;;11.27;2.83;;;17.80;99.90;;;;;;5012461;28;20383;-73
2022/07/22 00:08:53;;;;;;;14.68;2.75;;;17.80;99.90;;;;;;4999439;28;20026;-73
2022/07/22 00:11:18;;;;;;;11.32;2.75;;;17.80;99.90;;;;;;4994547;28;20018;-75
2022/07/22 00:13:45;;;;;;;11.50;2.40;;;17.80;99.90;;;;;;4995356;28;20027;-73
2022/07/22 00:16:10;;;;;;;10.68;2.63;;;17.80;99.90;;;;;;5003730;28;20014;-73
2022/07/22 00:18:36;;;;;;;11.00;2.67;;;17.90;99.90;;;;;;5006725;28;20451;-73
2022/07/22 00:21:02;;;;;;;12.30;2.70;;;17.80;99.90;;;;;;5004225;28;20538;-74
2022/07/22 00:23:27;;;;;;;10.60;2.83;;;17.80;99.90;;;;;;5012365;28;20124;-74
2022/07/22 00:25:53;;;;;;;11.02;2.60;;;17.80;99.90;;;;;;5011065;28;20040;-73
2022/07/22 00:28:19;;;;;;;9.52;2.45;;;17.80;99.90;;;;;;4994950;28;20482;-73
2022/07/22 00:30:45;;;;;;;10.05;2.25;;;17.80;99.90;;;;;;5007217;28;20398;-73
2022/07/22 00:33:10;;;;;;;7.80;2.50;;;17.80;99.90;;;;;;4996209;28;20073;-73
2022/07/22 00:35:37;;;;;;;10.77;2.78;;;17.80;99.90;;;;;;5013033;28;20070;-74
2022/07/22 00:38:02;;;;;;;12.13;2.50;;;17.80;99.90;;;;;;4998940;28;20038;-74
2022/07/22 00:40:28;;;;;;;9.07;2.28;;;17.80;99.90;;;;;;5010898;28;20014;-74
2022/07/22 00:42:54;;;;;;;8.73;2.17;;;17.80;99.90;;;;;;5006206;28;20036;-73
2022/07/22 00:45:19;;;;;;;8.60;2.38;;;17.80;99.90;;;;;;4996344;28;20582;-73
2022/07/22 00:47:45;;;;;;;8.77;2.13;;;17.80;99.90;;;;;;5009479;28;20022;-74
2022/07/22 00:50:11;;;;;;;10.27;2.30;;;17.80;99.90;;;;;;4997766;28;20021;-73
2022/07/22 00:52:37;;;;;;;8.95;2.58;;;17.80;99.90;;;;;;5007587;28;20471;-73
2022/07/22 00:55:04;;;;;;;9.60;2.53;;;17.80;99.90;;;;;;5016167;28;20057;-74
2022/07/22 00:57:30;;;;;;;4.45;1.90;;;17.80;99.90;;;;;;4996687;28;21513;-73
2022/07/22 00:59:56;;;;;;;8.93;2.20;;;17.80;99.90;;;;;;5005268;28;20030;-74
2022/07/22 01:02:22;;;;;;;7.50;2.22;;;17.80;99.90;;;;;;5010415;28;20060;-72
2022/07/22 01:04:47;;;;;;;12.55;2.30;;;17.70;99.90;;;;;;5003050;28;20029;-74
2022/07/22 01:07:13;;;;;;;8.75;2.20;;;17.70;99.90;;;;;;5008187;28;20389;-74
2022/07/22 01:09:45;;;;;;;9.40;2.15;;;17.70;99.90;;;;;;5008944;28;20053;-73
2022/07/22 01:12:11;;;;;;;9.10;2.20;;;17.60;99.90;;;;;;5009548;28;20037;-73
2022/07/22 01:14:37;;;;;;;6.82;1.75;;;17.60;99.90;;;;;;5009126;28;20031;-73
2022/07/22 01:17:03;;;;;;;8.00;2.28;;;17.60;99.90;;;;;;4999305;28;20026;-74
2022/07/22 01:19:29;;;;;;;8.38;2.20;;;17.70;99.90;;;;;;5001842;28;20457;-75
2022/07/22 01:21:55;;;;;;;12.45;2.10;;;17.70;99.90;;;;;;5012521;28;20038;-74
2022/07/22 01:24:20;;;;;;;7.72;1.73;;;17.60;99.90;;;;;;4998871;28;20375;-72
2022/07/22 01:26:46;;;;;;;13.07;2.20;;;17.70;99.90;;;;;;5003916;28;20061;-73
2022/07/22 01:29:11;;;;;;;7.85;2.10;;;17.70;99.90;;;;;;5002262;28;20449;-73
2022/07/22 01:31:37;;;;;;;12.13;2.70;;;17.60;99.90;;;;;;5001586;28;20032;-73
2022/07/22 01:34:03;;;;;;;6.50;1.95;;;17.60;99.90;;;;;;5008646;28;20034;-73
2022/07/22 01:36:29;;;;;;;10.15;2.00;;;17.60;99.90;;;;;;4998834;28;20579;-73
2022/07/22 01:38:55;;;;;;;7.60;1.83;;;17.60;99.90;;;;;;5006150;28;20486;-73
2022/07/22 01:41:20;;;;;;;8.55;2.10;;;17.60;99.90;;;;;;5002169;28;20037;-74
2022/07/22 01:43:46;;;;;;;8.73;1.95;;;17.60;99.90;;;;;;5001102;28;20031;-75
2022/07/22 01:46:12;;;;;;;7.00;2.00;;;17.60;99.90;;;;;;5011011;28;20120;-73
2022/07/22 01:48:37;;;;;;;6.15;2.22;;;17.60;99.90;;;;;;4999556;28;20295;-73
2022/07/22 01:51:03;;;;;;;7.63;2.05;;;17.60;99.90;;;;;;5005712;28;20116;-73
2022/07/22 01:53:29;;;;;;;6.43;1.95;;;17.70;99.90;;;;;;5013085;28;20105;-73
2022/07/22 01:55:54;;;;;;;7.85;2.50;;;17.70;99.90;;;;;;5012801;28;20339;-73
2022/07/22 01:58:20;;;;;;;5.60;1.80;;;17.70;99.90;;;;;;5001817;28;20606;-73
2022/07/22 02:00:48;;;;;;;8.10;2.10;;;17.70;99.90;;;;;;5003796;28;20025;-73
2022/07/22 02:03:13;;;;;;;7.25;1.92;;;17.60;99.90;;;;;;5013642;28;20109;-73
2022/07/22 02:05:39;;;;;;;7.75;1.98;;;17.60;99.90;;;;;;5013793;28;20076;-73
2022/07/22 02:08:08;;;;;;;7.95;2.13;;;17.60;99.90;;;;;;5000010;28;20089;-72
2022/07/22 02:10:34;;;;;;;5.22;2.00;;;17.60;99.90;;;;;;5001758;28;20038;-73
2022/07/22 02:13:00;;;;;;;8.65;1.90;;;17.60;99.90;;;;;;5011612;28;20077;-73
2022/07/22 02:15:27;;;;;;;7.22;2.17;;;17.60;99.90;;;;;;5011495;28;20038;-72
2022/07/22 02:17:53;;;;;;;7.97;1.80;;;17.60;99.90;;;;;;5001777;28;20033;-74
2022/07/22 02:20:19;;;;;;;9.00;2.00;;;17.60;99.90;;;;;;4996664;28;20037;-75
2022/07/22 02:22:45;;;;;;;7.57;2.00;;;17.60;99.90;;;;;;5005670;28;20035;-74
2022/07/22 02:25:11;;;;;;;6.07;1.83;;;17.60;99.90;;;;;;5012996;28;20103;-73
2022/07/22 02:27:37;;;;;;;6.70;2.00;;;17.60;99.90;;;;;;5001137;28;20130;-73
2022/07/22 02:30:04;;;;;;;8.10;2.08;;;17.60;99.90;;;;;;5000482;28;20072;-73
2022/07/22 02:32:30;;;;;;;5.03;1.90;;;17.50;99.90;;;;;;5007138;28;20061;-73
2022/07/22 02:34:56;;;;;;;8.45;1.73;;;17.60;99.90;;;;;;5011852;28;20104;-72
2022/07/22 02:37:22;;;;;;;5.43;1.55;;;17.50;99.90;;;;;;5006129;28;20026;-73
2022/07/22 02:39:47;;;;;;;5.97;1.77;;;17.60;99.90;;;;;;4999882;28;20036;-73
2022/07/22 02:42:13;;;;;;;7.53;1.90;;;17.50;99.90;;;;;;5007021;28;20069;-73
2022/07/22 02:44:39;;;;;;;9.35;2.00;;;17.50;99.90;;;;;;5002840;28;20092;-73
2022/07/22 02:47:04;;;;;;;7.05;1.73;;;17.60;99.90;;;;;;5008958;28;20113;-74
2022/07/22 02:49:30;;;;;;;4.57;1.95;;;17.50;99.90;;;;;;5002205;28;20046;-73
2022/07/22 02:51:55;;;;;;;5.60;1.50;;;17.60;99.90;;;;;;5000267;28;20057;-72
2022/07/22 02:54:21;;;;;;;7.10;1.70;;;17.60;99.90;;;;;;5017161;28;20022;-72
2022/07/22 02:56:46;;;;;;;4.97;1.80;;;17.50;99.90;;;;;;5009166;28;20038;-73
2022/07/22 02:59:12;;;;;;;8.05;1.98;;;17.50;99.90;;;;;;5011876;28;20492;-73
2022/07/22 03:01:38;;;;;;;7.68;1.80;;;17.50;99.90;;;;;;5006533;28;20041;-73
2022/07/22 03:04:03;;;;;;;8.18;1.95;;;17.50;99.90;;;;;;5009888;28;20093;-73
2022/07/22 03:06:29;;;;;;;7.57;1.80;;;17.50;99.90;;;;;;5007603;28;20116;-74
2022/07/22 03:08:54;;;;;;;5.53;1.60;;;17.50;99.90;;;;;;5015444;28;20034;-74
2022/07/22 03:11:20;;;;;;;8.15;1.58;;;17.50;99.90;;;;;;5010092;28;20097;-73
2022/07/22 03:13:46;;;;;;;7.95;1.80;;;17.50;99.90;;;;;;5011188;28;20038;-72
2022/07/22 03:16:11;;;;;;;10.63;2.13;;;17.50;99.90;;;;;;5010018;28;20053;-73
2022/07/22 03:18:37;;;;;;;5.55;1.58;;;17.50;99.90;;;;;;5004742;28;21570;-72
2022/07/22 03:21:02;;;;;;;6.07;1.50;;;17.50;99.90;;;;;;5015139;28;20026;-73
2022/07/22 03:23:28;;;;;;;7.25;1.83;;;17.50;99.90;;;;;;5005496;28;20037;-72
2022/07/22 03:25:56;;;;;;;8.02;1.67;;;17.50;99.90;;;;;;5013912;28;20034;-74
2022/07/22 03:28:22;;;;;;;5.65;1.67;;;17.50;99.90;;;;;;5006627;28;20033;-73
2022/07/22 03:30:47;;;;;;;6.25;1.60;;;17.50;99.90;;;;;;4997529;28;20022;-72
2022/07/22 03:33:13;;;;;;;8.13;1.77;;;17.40;99.90;;;;;;5014343;28;20034;-73
2022/07/22 03:35:38;;;;;;;8.23;1.45;;;17.40;99.90;;;;;;5014948;28;20026;-73
2022/07/22 03:38:04;;;;;;;7.38;1.75;;;17.40;99.90;;;;;;5008843;28;20452;-74
2022/07/22 03:40:30;;;;;;;14.35;2.08;;;17.40;99.90;;;;;;5007000;28;20033;-72
2022/07/22 03:42:55;;;;;;;10.10;2.15;;;17.40;99.90;;;;;;5012577;28;20034;-73
2022/07/22 03:45:21;;;;;;;9.38;1.85;;;17.40;99.90;;;;;;5014581;28;20045;-73
2022/07/22 03:47:46;;;;;;;8.07;2.03;;;17.40;99.90;;;;;;5014579;28;20092;-73
2022/07/22 03:50:12;;;;;;;9.10;1.73;;;17.40;99.90;;;;;;5014729;28;20096;-73
2022/07/22 03:52:37;;;;;;;8.80;1.85;;;17.40;99.90;;;;;;5014699;28;20025;-72
2022/07/22 03:55:04;;;;;;;5.38;1.75;;;17.40;99.90;;;;;;5014990;28;20022;-72
2022/07/22 03:57:30;;;;;;;7.75;1.95;;;17.40;99.90;;;;;;5014374;28;20022;-73
2022/07/22 03:59:55;;;;;;;4.60;1.45;;;17.40;99.90;;;;;;5015828;28;20037;-73
2022/07/22 04:02:21;;;;;;;3.80;1.55;;;17.40;99.90;;;;;;5015846;28;20061;-72
2022/07/22 04:04:47;;;;;;;8.43;1.80;;;17.40;99.90;;;;;;5016474;28;20057;-74
2022/07/22 04:07:12;;;;;;;8.93;1.90;;;17.40;99.90;;;;;;5015897;28;20022;-72
2022/07/22 04:09:38;;;;;;;7.88;1.67;;;17.40;99.90;;;;;;5016098;28;20563;-73
2022/07/22 04:12:04;;;;;;;6.28;1.52;;;17.40;99.90;;;;;;5008738;28;20037;-74
2022/07/22 04:14:29;;;;;;;9.30;1.90;;;17.40;99.90;;;;;;5015143;28;20037;-73
2022/07/22 04:16:55;;;;;;;6.28;1.63;;;17.50;99.90;;;;;;5015550;28;20028;-74
2022/07/22 04:19:21;;;;;;;8.30;1.50;;;17.50;99.90;;;;;;5001689;28;20077;-73
2022/07/22 04:21:46;;;;;;;7.72;2.10;;;17.50;99.90;;;;;;5015290;28;20302;-73
2022/07/22 04:24:12;;;;;;;6.38;1.88;;;17.50;99.90;;;;;;5015324;28;20026;-73
2022/07/22 04:26:37;;;;;;;5.47;1.50;;;17.50;99.90;;;;;;5012513;28;20042;-73
2022/07/22 04:29:06;;;;;;;5.68;1.92;;;17.50;99.90;;;;;;5015715;28;20513;-74
2022/07/22 04:31:32;;;;;;;4.97;1.65;;;17.60;99.90;;;;;;5015755;28;20022;-73
2022/07/22 04:33:58;;;;;;;6.15;1.70;;;17.60;99.90;;;;;;5016023;28;20110;-73
2022/07/22 04:36:23;;;;;;;6.68;1.90;;;17.60;99.90;;;;;;5016238;28;20034;-74
2022/07/22 04:38:49;;;;;;;3.75;1.60;;;17.60;99.90;;;;;;5015907;28;20026;-72
2022/07/22 04:41:15;;;;;;;6.07;2.00;;;17.60;99.90;;;;;;5010971;28;20030;-73
2022/07/22 04:43:40;;;;;;;7.82;1.90;;;17.70;99.90;;;;;;5009903;28;20060;-72
2022/07/22 04:46:06;;;;;;;9.60;1.75;;;17.70;99.90;;;;;;5005906;28;20036;-73
2022/07/22 04:48:32;;;;;;;6.20;1.65;;;17.70;99.90;;;;;;5015091;28;20087;-72
2022/07/22 04:51:01;;;;;;;5.72;1.73;;;17.70;99.90;;;;;;5015761;28;20474;-72
2022/07/22 04:53:27;;;;;;;5.30;1.55;;;17.70;99.90;;;;;;5015426;28;20026;-74
2022/07/22 04:55:53;;;;;;;6.53;1.67;;;17.80;99.90;;;;;;5012352;28;20022;-73
2022/07/22 04:58:19;;;;;;;10.82;1.80;;;17.80;99.90;;;;;;5008478;28;20026;-73
2022/07/22 05:00:46;;;;;;;6.53;1.77;;;17.80;99.90;;;;;;5001781;28;20018;-74
2022/07/22 05:03:12;;;;;;;8.52;1.90;;;17.80;99.90;;;;;;5015922;28;20026;-72
2022/07/22 05:05:37;;;;;;;4.72;1.63;;;17.90;99.90;;;;;;5016412;28;20052;-72
2022/07/22 05:08:03;;;;;;;6.05;1.65;;;17.90;99.90;;;;;;5015930;28;20037;-73
2022/07/22 05:10:29;;;;;;;4.63;1.30;;;18.00;99.90;;;;;;5013950;28;20498;-73
2022/07/22 05:12:55;;;;;;;8.15;1.77;;;18.00;99.90;;;;;;5002572;28;20025;-74
2022/07/22 05:15:20;;;;;;;6.57;1.38;;;18.00;99.90;;;;;;5015237;28;20029;-73
2022/07/22 05:17:46;;;;;;;5.38;1.60;;;18.00;99.90;;;;;;5015300;28;20022;-72
2022/07/22 05:20:12;;;;;;;3.90;1.30;;;18.00;99.90;;;;;;5002435;28;20057;-73
2022/07/22 05:22:37;;;;;;;5.38;1.75;;;18.00;99.90;;;;;;5003704;28;20023;-72
2022/07/22 05:25:03;;;;;;;9.50;1.80;;;18.00;99.90;;;;;;5016885;28;20025;-72
2022/07/22 05:27:29;;;;;;;8.07;1.38;;;18.00;99.90;;;;;;5019101;28;20058;-74
2022/07/22 05:29:56;;;;;;;9.60;1.67;;;18.00;99.90;;;;;;5019750;28;20026;-73
2022/07/22 05:32:21;;;;;;;5.45;1.60;;;18.00;99.90;;;;;;5018913;28;20040;-73
2022/07/22 05:34:47;;;;;;;5.32;1.48;;;18.10;99.90;;;;;;5019044;28;20034;-72
2022/07/22 05:37:12;;;;;;;3.45;1.40;;;18.00;99.90;;;;;;5019115;28;20014;-73
2022/07/22 05:39:38;;;;;;;7.95;1.70;;;18.00;99.90;;;;;;5019256;28;20018;-73
2022/07/22 05:42:04;;;;;;;6.10;1.48;;;18.10;99.90;;;;;;5005174;28;20025;-72
2022/07/22 05:44:29;;;;;;;8.55;1.38;;;18.10;99.90;;;;;;5017884;28;20041;-72
2022/07/22 05:46:55;;;;;;;7.97;1.60;;;18.10;99.90;;;;;;5016816;28;20026;-73
2022/07/22 05:49:21;;;;;;;8.40;1.50;;;18.20;99.90;;;;;;5007518;28;20382;-72
2022/07/22 05:51:47;;;;;;;4.72;1.30;;;18.20;99.90;;;;;;5005581;28;20021;-74
2022/07/22 05:54:12;;;;;;;5.88;1.60;;;18.20;99.90;;;;;;5018735;28;20022;-72
2022/07/22 05:56:38;;;;;;;5.90;1.33;;;18.20;99.90;;;;;;5015500;28;20018;-73
2022/07/22 05:59:03;;;;;;;2.95;1.23;;;18.20;99.90;;;;;;5019277;28;20049;-73
2022/07/22 06:01:29;;;;;;;7.80;1.33;;;18.20;99.90;;;;;;5018660;28;20022;-72
2022/07/22 06:03:55;;;;;;;9.30;1.17;;;18.20;99.90;;;;;;5018876;28;20021;-73
2022/07/22 06:06:20;;;;;;;6.60;1.30;;;18.20;99.90;;;;;;5019253;28;20030;-74
2022/07/22 06:08:46;;;;;;;8.38;1.63;;;18.20;99.90;;;;;;5014822;28;20290;-73
2022/07/22 06:11:12;;;;;;;7.05;1.42;;;18.20;99.90;;;;;;5009326;28;20018;-72
2022/07/22 06:13:38;;;;;;;5.28;1.20;;;18.20;99.90;;;;;;5019331;28;20022;-73
2022/07/22 06:16:04;;;;;;;3.88;1.23;;;18.20;99.90;;;;;;5019840;28;20080;-72
2022/07/22 06:18:29;;;;;;;10.65;1.58;;;18.20;99.90;;;;;;5012159;28;20024;-72
2022/07/22 06:20:55;;;;;;;3.30;1.35;;;18.30;99.90;;;;;;4999795;28;20105;-72
2022/07/22 06:23:23;;;;;;;8.00;1.58;;;18.30;99.90;;;;;;5017099;28;20053;-73
2022/07/22 06:25:48;;;;;;;5.80;1.42;;;18.40;99.90;;;;;;5016107;28;20032;-74
2022/07/22 06:28:14;;;;;;;4.97;1.45;;;18.40;99.90;;;;;;5018183;28;20029;-74
2022/07/22 06:30:40;;;;;;;4.88;1.20;;;18.50;99.90;;;;;;5018783;28;20034;-72
2022/07/22 06:33:05;;;;;;;8.25;1.40;;;18.60;99.90;;;;;;5019176;28;20040;-73
2022/07/22 06:35:31;;;;;;;4.75;1.45;;;18.60;99.90;;;;;;5018737;28;20453;-74
2022/07/22 06:37:57;;;;;;;9.20;1.80;;;18.60;99.90;;;;;;5018422;28;20026;-73
2022/07/22 06:40:22;;;;;;;5.22;1.42;;;18.70;99.90;;;;;;5015652;28;20083;-73
2022/07/22 06:42:48;;;;;;;6.47;1.88;;;18.70;99.90;;;;;;5018063;28;20030;-72
2022/07/22 06:45:13;;;;;;;3.30;1.08;;;18.80;99.90;;;;;;5016313;28;20018;-73
2022/07/22 06:47:39;;;;;;;9.10;1.50;;;18.80;99.90;;;;;;5018763;28;20026;-73
2022/07/22 06:50:07;;;;;;;4.97;1.83;;;18.80;99.90;;;;;;5017735;28;20121;-74
2022/07/22 06:52:33;;;;;;;5.72;1.45;;;18.90;99.90;;;;;;5017781;28;20036;-74
2022/07/22 06:54:58;;;;;;;4.95;1.20;;;18.90;99.90;;;;;;5005767;28;20049;-72
2022/07/22 06:57:24;;;;;;;3.00;1.30;;;19.00;99.90;;;;;;5016864;28;20026;-73
2022/07/22 06:59:50;;;;;;;3.35;1.27;;;19.00;99.90;;;;;;5018950;28;20077;-74
2022/07/22 07:02:15;;;;;;;4.68;1.52;;;19.00;99.90;;;;;;5016891;28;20025;-73
2022/07/22 07:04:41;;;;;;;3.92;1.23;;;19.10;99.90;;;;;;5017983;28;20026;-73
2022/07/22 07:07:07;;;;;;;4.82;1.38;;;19.10;99.90;;;;;;5018326;28;20519;-73
2022/07/22 07:09:33;;;;;;;4.10;1.50;;;19.10;99.90;;;;;;5016294;28;20041;-73
2022/07/22 07:11:59;;;;;;;6.20;1.70;;;19.10;99.90;;;;;;5017053;28;20077;-72
2022/07/22 07:14:24;;;;;;;6.80;1.35;;;19.20;99.90;;;;;;5017933;28;20399;-73
2022/07/22 07:16:50;;;;;;;3.90;1.38;;;19.20;99.90;;;;;;5018243;28;20041;-73
2022/07/22 07:19:15;;;;;;;8.48;1.58;;;19.20;99.90;;;;;;5001197;28;20410;-74
2022/07/22 07:21:41;;;;;;;4.03;1.27;;;19.30;99.90;;;;;;5015968;28;20022;-73
2022/07/22 07:24:06;;;;;;;5.55;1.30;;;19.40;99.90;;;;;;5009565;28;20088;-73
2022/07/22 07:26:32;;;;;;;6.32;1.25;;;19.50;99.90;;;;;;5013773;28;20057;-72
2022/07/22 07:28:57;;;;;;;5.25;1.20;;;19.50;99.90;;;;;;5017334;28;20030;-74
2022/07/22 07:31:23;;;;;;;4.65;1.13;;;19.50;99.90;;;;;;5017631;28;20025;-72
2022/07/22 07:33:51;;;;;;;5.72;1.73;;;19.50;99.90;;;;;;5017771;28;20065;-74
2022/07/22 07:36:17;;;;;;;4.60;1.50;;;19.60;99.90;;;;;;5018183;28;20577;-73
2022/07/22 07:38:42;;;;;;;6.25;1.35;;;19.60;99.90;;;;;;5012104;28;20066;-73
2022/07/22 07:41:08;;;;;;;9.23;1.50;;;19.60;99.90;;;;;;4999291;28;20042;-73
2022/07/22 07:43:34;;;;;;;7.30;1.48;;;19.60;99.90;;;;;;5001069;28;20065;-74
2022/07/22 07:46:00;;;;;;;7.15;1.60;;;19.60;99.90;;;;;;5008137;28;20030;-72
2022/07/22 07:48:25;;;;;;;3.75;1.70;;;19.60;99.90;;;;;;5012333;28;20105;-74
2022/07/22 07:50:51;;;;;;;4.97;1.65;;;19.50;99.90;;;;;;5004114;28;20037;-73
2022/07/22 07:53:17;;;;;;;5.28;1.45;;;19.50;99.90;;;;;;5011243;28;20011;-73
2022/07/22 07:55:43;;;;;;;6.47;1.42;;;19.50;99.90;;;;;;5016344;28;20474;-74
2022/07/22 07:58:10;;;;;;;6.25;1.33;;;19.50;99.90;;;;;;5018066;28;20086;-73
2022/07/22 08:00:37;;;;;;;6.00;1.52;;;19.50;99.90;;;;;;5015229;28;20022;-74
2022/07/22 08:03:03;;;;;;;4.78;1.30;;;19.50;99.90;;;;;;5017820;28;20450;-74
2022/07/22 08:05:29;;;;;;;5.18;1.42;;;19.60;99.90;;;;;;5012206;28;20505;-72
2022/07/22 08:07:55;;;;;;;5.70;1.65;;;19.60;99.90;;;;;;5010240;28;20017;-73
2022/07/22 08:10:22;;;;;;;3.05;1.50;;;19.60;99.90;;;;;;5011081;28;20028;-73
2022/07/22 08:12:48;;;;;;;6.57;1.65;;;19.70;99.90;;;;;;5009574;28;20090;-73
2022/07/22 08:15:15;;;;;;;7.20;1.80;;;19.60;99.90;;;;;;4998915;28;20022;-73
2022/07/22 08:17:40;;;;;;;3.17;1.40;;;19.60;99.90;;;;;;5009348;28;20441;-72
2022/07/22 08:20:07;;;;;;;8.57;1.50;;;19.70;99.90;;;;;;5010524;28;20018;-74
2022/07/22 08:22:34;;;;;;;7.00;1.58;;;19.70;99.90;;;;;;5010590;28;20045;-73
2022/07/22 08:24:59;;;;;;;4.65;1.67;;;19.80;99.90;;;;;;5011054;28;20069;-74
2022/07/22 08:27:25;;;;;;;7.65;1.80;;;19.90;99.90;;;;;;5006484;28;20478;-73
2022/07/22 08:29:51;;;;;;;5.22;1.63;;;19.90;99.90;;;;;;5006039;28;20398;-73
2022/07/22 08:32:17;;;;;;;6.82;1.63;;;20.00;99.90;;;;;;5005742;28;20021;-73
2022/07/22 08:34:42;;;;;;;6.22;1.50;;;20.00;99.90;;;;;;5012188;28;20026;-74
2022/07/22 08:37:08;;;;;;;4.35;1.35;;;20.10;99.90;;;;;;4998348;28;20022;-75
2022/07/22 08:39:34;;;;;;;5.28;1.60;;;20.20;99.90;;;;;;5000401;28;20032;-72
2022/07/22 08:42:00;;;;;;;5.25;1.90;;;20.30;99.90;;;;;;4998253;28;20562;-73
2022/07/22 08:44:29;;;;;;;5.43;1.50;;;20.50;99.90;;;;;;4997289;28;20026;-73
2022/07/22 08:46:55;;;;;;;8.75;1.90;;;20.60;99.90;;;;;;4997890;28;20030;-73
2022/07/22 08:49:21;;;;;;;6.70;1.75;;;20.70;99.90;;;;;;5005716;28;20044;-73
2022/07/22 08:51:46;;;;;;;5.55;1.52;;;20.90;99.90;;;;;;5001413;28;20033;-72
2022/07/22 08:54:12;;;;;;;4.20;1.45;;;20.90;99.90;;;;;;4997616;28;20042;-75
2022/07/22 08:56:39;;;;;;;5.43;1.30;;;21.00;99.90;;;;;;5005982;28;20026;-73
2022/07/22 08:59:05;;;;;;;8.13;1.98;;;21.00;99.90;;;;;;5006055;28;20010;-74
2022/07/22 09:01:31;;;;;;;4.95;1.52;;;21.10;99.90;;;;;;5005135;28;20034;-73
2022/07/22 09:03:57;;;;;;;5.68;1.60;;;21.30;99.90;;;;;;4997012;28;20034;-73
2022/07/22 09:06:25;;;;;;;4.38;1.50;;;21.30;99.90;;;;;;4996923;28;20057;-73
2022/07/22 09:09:04;;;;;;;8.00;1.55;;;21.40;99.90;;;;;;4997353;28;20014;-72
2022/07/22 09:11:31;;;;;;;8.50;1.45;;;21.40;99.90;;;;;;4998576;28;20439;-73
2022/07/22 09:13:59;;;;;;;5.38;1.45;;;21.40;99.90;;;;;;5009473;28;20098;-73
2022/07/22 09:16:54;;;;;;;3.95;1.67;;;21.50;99.90;;;;;;4997328;28;20053;-73
2022/07/22 09:19:32;;;;;;;6.00;1.50;;;21.60;99.90;;;;;;5000109;28;20034;-74
2022/07/22 09:21:57;;;;;;;3.55;1.58;;;21.80;99.90;;;;;;5010606;28;20026;-73
2022/07/22 09:24:31;;;;;;;5.95;1.52;;;22.00;99.90;;;;;;4997623;28;20035;-74
2022/07/22 09:26:56;;;;;;;5.07;1.45;;;22.10;99.90;;;;;;5005131;28;20053;-73
2022/07/22 09:29:22;;;;;;;5.80;1.60;;;22.30;99.90;;;;;;5005638;28;20019;-74
2022/07/22 09:31:52;;;;;;;4.70;1.40;;;22.30;99.90;;;;;;5013714;28;20020;-74
2022/07/22 09:34:34;;;;;;;6.30;1.52;;;22.40;99.90;;;;;;5005098;28;20026;-74
2022/07/22 09:37:00;;;;;;;6.00;1.40;;;22.50;99.80;;;;;;5006555;28;20010;-74
2022/07/22 09:39:31;;;;;;;6.10;1.60;;;22.50;99.20;;;;;;5006432;28;20027;-73
2022/07/22 09:42:07;;;;;;;3.15;1.10;;;22.50;98.70;;;;;;5000809;28;20026;-74
2022/07/22 09:44:33;;;;;;;3.67;1.02;;;22.50;98.80;;;;;;5000548;28;20046;-75
2022/07/22 09:46:58;;;;;;;8.07;1.63;;;22.50;98.20;;;;;;4999955;28;20103;-73
2022/07/22 09:49:38;;;;;;;5.32;1.42;;;22.60;97.60;;;;;;4998283;28;20046;-74
2022/07/22 09:52:04;;;;;;;2.97;1.40;;;22.60;97.20;;;;;;5004412;28;20041;-77
2022/07/22 09:54:30;;;;;;;5.38;1.30;;;22.80;97.00;;;;;;4994478;28;20040;-76
2022/07/22 09:56:57;;;;;;;6.07;1.50;;;22.90;96.60;;;;;;4991529;28;20027;-75
2022/07/22 09:59:23;;;;;;;4.97;1.40;;;22.90;95.80;;;;;;4991666;28;20380;-75
2022/07/22 10:01:53;;;;;;;4.72;1.15;;;22.90;95.70;;;;;;4991490;28;20019;-76
2022/07/22 10:04:20;;;;;;;5.18;1.30;;;22.80;95.30;;;;;;4995706;28;20486;-76
2022/07/22 10:06:48;;;;;;;5.97;1.27;;;22.70;95.40;;;;;;4991513;28;20483;-75
2022/07/22 10:09:15;;;;;;;3.05;1.20;;;22.40;94.70;;;;;;4997358;28;20045;-76
2022/07/22 10:11:44;;;;;;;6.40;1.70;;;22.30;95.40;;;;;;5002258;28;20053;-76
2022/07/22 10:14:13;;;;;;;4.70;1.40;;;22.00;96.00;;;;;;4995074;28;20038;-76
2022/07/22 10:16:39;;;;;;;4.75;1.40;;;22.00;96.30;;;;;;5000374;28;20113;-75
2022/07/22 10:19:05;;;;;;;8.70;1.67;;;21.90;96.30;;;;;;4997536;28;20023;-75
2022/07/22 10:21:33;;;;;;;6.50;1.80;;;22.00;96.70;;;;;;5009260;28;20479;-76
2022/07/22 10:24:23;;;;;;;4.45;1.25;;;22.10;96.80;;;;;;5009135;28;20053;-76
2022/07/22 10:26:53;;;;;;;5.72;1.58;;;22.20;96.60;;;;;;5007867;28;20543;-75
2022/07/22 10:29:30;;;;;;;4.53;1.30;;;22.10;96.70;;;;;;5009956;28;20049;-75
2022/07/22 10:32:17;;;;;;;4.13;1.50;;;22.10;97.20;;;;;;5001323;28;20413;-75
2022/07/22 10:34:44;;;;;;;7.35;1.52;;;22.00;97.00;;;;;;5013544;28;20057;-75
2022/07/22 10:37:35;;;;;;;6.63;1.90;;;21.90;97.20;;;;;;5007504;28;20060;-75
2022/07/22 10:40:26;;;;;;;5.38;1.80;;;21.80;97.60;;;;;;5014572;28;20057;-74
2022/07/22 10:43:00;;;;;;;5.10;1.60;;;21.90;98.00;;;;;;5016005;28;20040;-73
2022/07/22 10:45:35;;;;;;;5.40;1.52;;;22.10;97.70;;;;;;5015835;28;20025;-73
2022/07/22 10:48:09;;;;;;;7.50;1.95;;;22.10;97.60;;;;;;5017797;28;20045;-74
2022/07/22 10:50:37;;;;;;;6.68;1.60;;;22.10;96.60;;;;;;5011325;28;20030;-75
2022/07/22 10:53:05;;;;;;;8.15;1.75;;;22.10;97.00;;;;;;5014103;28;20029;-73
2022/07/22 10:55:31;;;;;;;6.60;1.83;;;22.30;96.90;;;;;;5024860;28;20458;-74
2022/07/22 10:57:57;;;;;;;4.70;1.80;;;22.50;96.00;;;;;;5023005;28;20061;-73
2022/07/22 11:00:22;;;;;;;6.35;1.80;;;22.70;96.10;;;;;;5023587;28;20056;-74
2022/07/22 11:02:48;;;;;;;8.75;1.90;;;22.90;96.00;;;;;;5019065;28;20066;-75
2022/07/22 11:05:14;;;;;;;4.57;1.50;;;23.20;95.80;;;;;;5010096;28;20027;-75
2022/07/22 11:07:46;;;;;;;5.57;1.63;;;23.40;95.10;;;;;;5016911;28;20103;-75
2022/07/22 11:10:16;;;;;;;14.40;7.05;;;23.70;95.00;;;;;;5015816;28;20101;-75
2022/07/22 11:12:42;;;;;;;37.42;25.75;;;23.90;93.80;;;;;;5015667;28;20037;-74
2022/07/22 11:15:08;;;;;;;12.10;4.93;;;24.00;93.10;;;;;;5020557;28;20080;-75
2022/07/22 11:17:38;;;;;;;6.22;2.30;;;24.10;92.10;;;;;;5019769;28;20060;-75
2022/07/22 11:20:06;;;;;;;5.25;1.50;;;24.20;92.00;;;;;;5003476;28;20060;-75
2022/07/22 11:22:32;;;;;;;3.60;1.45;;;24.40;91.70;;;;;;5006676;28;20058;-75
2022/07/22 11:25:01;;;;;;;5.13;1.70;;;24.50;91.90;;;;;;5013007;28;20022;-74
2022/07/22 11:27:27;;;;;;;5.10;1.60;;;24.50;90.50;;;;;;5008642;28;20054;-75
2022/07/22 11:29:56;;;;;;;6.65;1.48;;;24.40;90.10;;;;;;5017606;28;20121;-74
2022/07/22 11:32:22;;;;;;;65.30;50.15;;;24.30;90.20;;;;;;5011928;28;20031;-75
2022/07/22 11:34:48;;;;;;;123.80;99.63;;;24.20;90.10;;;;;;5005618;28;20053;-75
2022/07/22 11:37:24;;;;;;;34.72;21.45;;;24.00;90.10;;;;;;5011770;28;20038;-74
2022/07/22 11:39:51;;;;;;;10.10;3.85;;;23.90;90.50;;;;;;5008249;28;20092;-74
2022/07/22 11:42:17;;;;;;;4.55;2.08;;;23.80;90.40;;;;;;5011379;28;20032;-74
2022/07/22 11:44:44;;;;;;;6.07;1.75;;;23.60;90.60;;;;;;5019219;28;20053;-75
2022/07/22 11:47:10;;;;;;;7.35;1.90;;;23.30;90.70;;;;;;5009405;28;20041;-74
2022/07/22 11:49:39;;;;;;;8.00;2.00;;;23.20;91.20;;;;;;5013283;28;20086;-73
2022/07/22 11:52:11;;;;;;;5.65;1.50;;;23.10;91.10;;;;;;5011561;28;20055;-74
2022/07/22 11:54:39;;;;;;;8.18;1.77;;;23.00;91.40;;;;;;5012868;28;20033;-74
2022/07/22 11:57:05;;;;;;;5.18;1.70;;;22.90;91.20;;;;;;5022377;28;20068;-72
2022/07/22 11:59:30;;;;;;;102.13;78.15;;;22.80;91.80;;;;;;5002135;28;20082;-74
2022/07/22 12:01:57;;;;;;;8.20;3.50;;;22.90;91.60;;;;;;5006451;28;21099;-73
2022/07/22 12:04:24;;;;;;;20.13;16.73;;;23.00;91.20;;;;;;5007115;28;20026;-74
2022/07/22 12:06:53;;;;;;;4.88;2.30;;;23.00;91.80;;;;;;5011397;28;20022;-74
2022/07/22 12:09:24;;;;;;;6.93;1.60;;;23.10;91.40;;;;;;5028832;28;20018;-74
2022/07/22 12:11:57;;;;;;;3.15;1.52;;;23.20;91.30;;;;;;4999485;28;20042;-74
2022/07/22 12:14:29;;;;;;;5.80;1.73;;;23.40;91.40;;;;;;5013283;28;20049;-74
2022/07/22 12:17:00;;;;;;;7.63;2.85;;;23.60;90.90;;;;;;5011235;28;20057;-74
2022/07/22 12:19:32;;;;;;;18.40;13.07;;;23.70;90.20;;;;;;5013656;28;20136;-74
2022/07/22 12:22:05;;;;;;;22.00;16.90;;;23.70;89.80;;;;;;5011887;28;20029;-72
2022/07/22 12:24:39;;;;;;;31.02;16.63;;;23.80;89.70;;;;;;5006466;28;20038;-72
2022/07/22 12:27:15;;;;;;;10.02;4.30;;;23.90;88.60;;;;;;5017589;28;20057;-71
2022/07/22 12:29:42;;;;;;;4.53;1.50;;;24.10;86.60;;;;;;5009027;28;20100;-72
2022/07/22 12:32:11;;;;;;;18.10;10.80;;;24.00;85.70;;;;;;5008132;28;20101;-72
2022/07/22 12:34:39;;;;;;;5.70;2.50;;;24.00;85.90;;;;;;5013971;28;20030;-73
2022/07/22 12:37:19;;;;;;;5.03;1.88;;;23.90;84.80;;;;;;5003502;28;20030;-72
2022/07/22 12:39:55;;;;;;;3.95;1.50;;;23.80;86.00;;;;;;5006044;28;20447;-72
2022/07/22 12:42:21;;;;;;;4.65;1.13;;;23.80;85.10;;;;;;5013371;28;20475;-72
2022/07/22 12:44:59;;;;;;;4.85;1.35;;;23.60;85.70;;;;;;5016505;28;20113;-72